createdAt,value
2023-04-17T00:00:12.437Z,101340.56
2023-04-17T00:02:40.116Z,101341.91
2023-04-17T00:05:10.346Z,101346.28
2023-04-17T00:07:38.765Z,101341.94
2023-04-17T00:10:10.151Z,101349.50
2023-04-17T00:12:37.304Z,101344.09
2023-04-17T00:15:04.351Z,101344.09
2023-04-17T00:17:30.782Z,101344.66
2023-04-17T00:19:57.399Z,101337.31
2023-04-17T00:22:24.003Z,101335.94
2023-04-17T00:24:50.464Z,101343.53
2023-04-17T00:27:16.951Z,101339.47
2023-04-17T00:29:43.341Z,101337.84
2023-04-17T00:32:09.716Z,101335.66
2023-04-17T00:34:36.314Z,101334.59
2023-04-17T00:37:02.712Z,101331.06
2023-04-17T00:39:29.116Z,101334.59
2023-04-17T00:41:56.424Z,101335.41
2023-04-17T00:44:22.907Z,101339.19
2023-04-17T00:46:49.594Z,101342.44
2023-04-17T00:49:16.172Z,101337.81
2023-04-17T00:51:42.642Z,101339.97
2023-04-17T00:54:10.122Z,101336.75
2023-04-17T00:56:36.662Z,101331.59
2023-04-17T00:59:05.914Z,101339.19
2023-04-17T01:01:32.570Z,101341.88
2023-04-17T01:04:01.734Z,101335.94
2023-04-17T01:06:28.551Z,101340.53
2023-04-17T01:08:55.214Z,101329.94
2023-04-17T01:11:22.070Z,101334.56
2023-04-17T01:13:50.244Z,101329.13
2023-04-17T01:16:17.826Z,101337.53
2023-04-17T01:18:44.691Z,101335.09
2023-04-17T01:21:11.171Z,101339.44
2023-04-17T01:24:52.337Z,101337.81
2023-04-17T01:27:18.872Z,101340.25
2023-04-17T01:29:45.389Z,101335.38
2023-04-17T01:32:12.002Z,101338.91
2023-04-17T01:34:38.544Z,101338.91
2023-04-17T01:37:05.094Z,101337.56
2023-04-17T01:39:31.599Z,101341.91
2023-04-17T01:41:58.235Z,101351.09
2023-04-17T01:44:24.659Z,101342.44
2023-04-17T01:46:51.427Z,101345.94
2023-04-17T01:49:17.927Z,101348.38
2023-04-17T01:51:44.366Z,101344.59
2023-04-17T01:54:15.361Z,101348.91
2023-04-17T01:56:42.404Z,101350.84
2023-04-17T01:59:09.888Z,101344.84
2023-04-17T02:01:36.942Z,101350.00
2023-04-17T02:04:03.854Z,101343.19
2023-04-17T02:06:31.922Z,101347.00
2023-04-17T02:08:59.252Z,101344.28
2023-04-17T02:11:26.226Z,101351.06
2023-04-17T02:13:52.694Z,101346.50
2023-04-17T02:16:21.643Z,101356.25
2023-04-17T02:18:48.545Z,101349.47
2023-04-17T02:21:15.001Z,101353.81
2023-04-17T02:23:41.580Z,101361.13
2023-04-17T02:26:07.977Z,101354.34
2023-04-17T02:28:34.371Z,101352.97
2023-04-17T02:31:00.810Z,101359.47
2023-04-17T02:33:28.008Z,101360.56
2023-04-17T02:35:54.391Z,101356.75
2023-04-17T02:38:20.855Z,101361.91
2023-04-17T02:40:47.351Z,101362.44
2023-04-17T02:43:14.090Z,101362.75
2023-04-17T02:45:40.612Z,101361.13
2023-04-17T02:48:07.071Z,101356.75
2023-04-17T02:50:33.942Z,101356.53
2023-04-17T02:53:00.350Z,101358.41
2023-04-17T02:55:27.036Z,101355.97
2023-04-17T02:57:53.490Z,101351.91
2023-04-17T03:00:20.678Z,101351.63
2023-04-17T03:02:47.212Z,101355.41
2023-04-17T03:05:14.971Z,101354.59
2023-04-17T03:07:41.493Z,101361.41
2023-04-17T03:10:09.329Z,101356.22
2023-04-17T03:12:35.856Z,101359.22
2023-04-17T03:15:02.383Z,101359.75
2023-04-17T03:17:28.821Z,101363.81
2023-04-17T03:19:55.231Z,101359.22
2023-04-17T03:22:21.661Z,101365.41
2023-04-17T03:24:48.081Z,101368.41
2023-04-17T03:27:14.560Z,101368.66
2023-04-17T03:29:41.096Z,101371.94
2023-04-17T03:32:07.848Z,101375.47
2023-04-17T03:34:34.488Z,101375.47
2023-04-17T03:37:00.859Z,101373.81
2023-04-17T03:39:27.294Z,101378.16
2023-04-17T03:41:53.661Z,101373.31
2023-04-17T03:44:20.216Z,101385.47
2023-04-17T03:46:46.618Z,101382.47
2023-04-17T03:49:13.205Z,101385.19
2023-04-17T03:51:39.838Z,101375.94
2023-04-17T03:54:06.356Z,101378.38
2023-04-17T03:56:32.892Z,101377.56
2023-04-17T03:58:59.542Z,101378.09
2023-04-17T04:01:28.291Z,101380.25
2023-04-17T04:03:55.376Z,101381.34
2023-04-17T04:06:22.450Z,101384.88
2023-04-17T04:08:49.483Z,101386.28
2023-04-17T04:11:16.513Z,101385.16
2023-04-17T04:13:46.034Z,101394.66
2023-04-17T04:16:12.548Z,101384.09
2023-04-17T04:18:38.957Z,101398.47
2023-04-17T04:21:06.128Z,101395.44
2023-04-17T04:23:33.696Z,101400.63
2023-04-17T04:26:01.857Z,101396.53
2023-04-17T04:28:30.131Z,101393.00
2023-04-17T04:30:58.726Z,101402.50
2023-04-17T04:33:25.243Z,101402.97
2023-04-17T04:35:51.843Z,101399.72
2023-04-17T04:38:18.616Z,101406.50
2023-04-17T04:40:49.849Z,101405.97
2023-04-17T04:43:16.386Z,101415.47
2023-04-17T04:45:42.831Z,101402.97
2023-04-17T04:48:09.307Z,101416.50
2023-04-17T04:50:35.883Z,101422.41
2023-04-17T04:53:02.315Z,101411.34
2023-04-17T04:55:30.520Z,101417.00
2023-04-17T04:57:57.503Z,101422.47
2023-04-17T05:00:23.998Z,101429.28
2023-04-17T05:02:50.734Z,101425.19
2023-04-17T05:05:17.233Z,101427.13
2023-04-17T05:07:43.617Z,101432.25
2023-04-17T05:10:10.078Z,101434.69
2023-04-17T05:12:36.546Z,101438.72
2023-04-17T05:15:03.165Z,101444.72
2023-04-17T05:17:29.609Z,101440.00
2023-04-17T05:19:56.121Z,101445.44
2023-04-17T05:22:22.569Z,101446.75
2023-04-17T05:24:48.995Z,101449.69
2023-04-17T05:27:15.452Z,101458.84
2023-04-17T05:29:41.834Z,101458.25
2023-04-17T05:32:08.375Z,101460.16
2023-04-17T05:34:34.800Z,101459.91
2023-04-17T05:37:01.372Z,101451.53
2023-04-17T05:39:27.780Z,101454.78
2023-04-17T05:41:54.227Z,101465.56
2023-04-17T05:44:20.693Z,101465.81
2023-04-17T05:46:47.064Z,101462.06
2023-04-17T05:49:13.709Z,101468.09
2023-04-17T05:51:40.237Z,101465.06
2023-04-17T05:54:06.724Z,101479.75
2023-04-17T05:56:33.151Z,101478.13
2023-04-17T05:58:59.566Z,101477.88
2023-04-17T06:01:26.237Z,101484.44
2023-04-17T06:03:53.076Z,101475.50
2023-04-17T06:06:19.784Z,101480.78
2023-04-17T06:08:46.288Z,101486.69
2023-04-17T06:11:12.954Z,101486.75
2023-04-17T06:13:39.374Z,101481.19
2023-04-17T06:16:06.043Z,101488.47
2023-04-17T06:18:32.567Z,101484.75
2023-04-17T06:20:59.010Z,101491.75
2023-04-17T06:23:25.734Z,101491.31
2023-04-17T06:25:52.338Z,101494.28
2023-04-17T06:28:18.767Z,101493.13
2023-04-17T06:30:45.366Z,101505.06
2023-04-17T06:33:11.802Z,101508.66
2023-04-17T06:35:38.352Z,101497.75
2023-04-17T06:38:04.869Z,101500.47
2023-04-17T06:40:31.512Z,101504.81
2023-04-17T06:42:58.098Z,101500.22
2023-04-17T06:45:24.731Z,101498.56
2023-04-17T06:47:51.253Z,101505.34
2023-04-17T06:50:18.280Z,101512.44
2023-04-17T06:52:44.828Z,101506.44
2023-04-17T06:55:11.283Z,101505.19
2023-04-17T06:57:39.021Z,101513.69
2023-04-17T07:00:06.260Z,101518.06
2023-04-17T07:02:32.833Z,101515.38
2023-04-17T07:04:59.418Z,101514.00
2023-04-17T07:07:26.963Z,101518.41
2023-04-17T07:09:53.475Z,101519.75
2023-04-17T07:12:19.967Z,101529.53
2023-04-17T07:14:46.396Z,101526.81
2023-04-17T07:17:12.777Z,101526.31
2023-04-17T07:19:39.245Z,101526.88
2023-04-17T07:22:05.670Z,101528.50
2023-04-17T07:24:34.897Z,101537.19
2023-04-17T07:27:04.853Z,101533.13
2023-04-17T07:29:31.577Z,101534.78
2023-04-17T07:31:58.190Z,101538.63
2023-04-17T07:34:25.446Z,101546.09
2023-04-17T07:36:52.765Z,101550.97
2023-04-17T07:39:19.923Z,101545.03
2023-04-17T07:41:46.351Z,101548.66
2023-04-17T07:44:13.034Z,101555.97
2023-04-17T07:46:39.553Z,101551.94
2023-04-17T07:49:06.185Z,101559.56
2023-04-17T07:51:32.804Z,101559.84
2023-04-17T07:53:59.246Z,101560.63
2023-04-17T07:56:27.656Z,101577.50
2023-04-17T07:58:54.049Z,101573.72
2023-04-17T08:01:21.475Z,101567.78
2023-04-17T08:03:48.852Z,101576.75
2023-04-17T08:06:15.617Z,101571.63
2023-04-17T08:08:47.272Z,101566.22
2023-04-17T08:11:14.424Z,101568.03
2023-04-17T08:13:40.831Z,101573.75
2023-04-17T08:16:08.730Z,101571.13
2023-04-17T08:18:37.462Z,101575.25
2023-04-17T08:21:04.441Z,101581.53
2023-04-17T08:23:31.017Z,101578.28
2023-04-17T08:25:57.904Z,101580.75
2023-04-17T08:28:24.984Z,101580.72
2023-04-17T08:30:51.835Z,101587.56
2023-04-17T08:33:18.595Z,101587.56
2023-04-17T08:35:45.597Z,101583.16
2023-04-17T08:38:14.140Z,101581.84
2023-04-17T08:40:42.946Z,101578.03
2023-04-17T08:43:17.161Z,101591.66
2023-04-17T08:45:57.952Z,101595.72
2023-04-17T08:48:24.767Z,101586.47
2023-04-17T08:50:53.422Z,101590.81
2023-04-17T08:53:21.012Z,101599.53
2023-04-17T08:55:48.786Z,101592.19
2023-04-17T08:58:15.592Z,101597.38
2023-04-17T09:00:43.835Z,101597.91
2023-04-17T09:03:12.872Z,101601.72
2023-04-17T09:05:46.178Z,101596.81
2023-04-17T09:08:17.726Z,101601.97
2023-04-17T09:10:51.274Z,101606.63
2023-04-17T09:13:25.545Z,101604.16
2023-04-17T09:16:09.261Z,101600.91
2023-04-17T09:18:37.349Z,101605.53
2023-04-17T09:21:05.177Z,101608.78
2023-04-17T09:23:45.792Z,101607.16
2023-04-17T09:26:14.048Z,101603.06
2023-04-17T09:28:41.227Z,101612.31
2023-04-17T09:31:30.230Z,101614.22
2023-04-17T09:34:01.610Z,101599.41
2023-04-17T09:36:33.996Z,101606.16
2023-04-17T09:39:04.368Z,101603.69
2023-04-17T09:41:39.457Z,101610.44
2023-04-17T09:44:06.323Z,101607.69
2023-04-17T09:46:46.000Z,101607.69
2023-04-17T09:49:42.217Z,101607.22
2023-04-17T09:52:09.080Z,101601.34
2023-04-17T09:54:39.041Z,101607.41
2023-04-17T09:57:10.130Z,101607.56
2023-04-17T09:59:41.460Z,101602.16
2023-04-17T10:02:09.391Z,101597.72
2023-04-17T10:04:36.743Z,101597.81
2023-04-17T10:07:04.379Z,101595.25
2023-04-17T10:09:31.031Z,101601.66
2023-04-17T10:11:59.002Z,101600.75
2023-04-17T10:14:32.688Z,101593.81
2023-04-17T10:16:59.344Z,101596.44
2023-04-17T10:19:30.628Z,101599.81
2023-04-17T10:22:15.863Z,101600.13
2023-04-17T10:24:47.231Z,101592.72
2023-04-17T10:27:28.690Z,101586.81
2023-04-17T10:30:03.416Z,101590.00
2023-04-17T10:32:31.007Z,101590.38
2023-04-17T10:35:01.860Z,101594.25
2023-04-17T10:37:46.851Z,101594.13
2023-04-17T10:40:34.278Z,101589.97
2023-04-17T10:43:26.389Z,101580.22
2023-04-17T10:45:53.867Z,101587.09
2023-04-17T10:48:56.396Z,101591.34
2023-04-17T10:51:27.695Z,101583.84
2023-04-17T10:54:06.338Z,101584.78
2023-04-17T10:56:38.608Z,101578.03
2023-04-17T10:59:11.504Z,101574.44
2023-04-17T11:01:47.591Z,101568.47
2023-04-17T11:04:21.404Z,101566.66
2023-04-17T11:06:48.468Z,101572.91
2023-04-17T11:09:15.908Z,101568.34
2023-04-17T11:11:44.947Z,101571.97
2023-04-17T11:14:15.473Z,101568.91
2023-04-17T11:16:43.193Z,101576.09
2023-04-17T11:19:11.189Z,101571.47
2023-04-17T11:21:52.384Z,101582.91
2023-04-17T11:24:24.600Z,101574.56
2023-04-17T11:26:51.159Z,101580.22
2023-04-17T11:29:19.047Z,101587.22
2023-04-17T11:31:46.921Z,101578.25
2023-04-17T11:34:14.392Z,101574.72
2023-04-17T11:36:40.979Z,101575.47
2023-04-17T11:39:08.298Z,101590.06
2023-04-17T11:41:38.232Z,101582.88
2023-04-17T11:44:08.957Z,101583.94
2023-04-17T11:46:36.710Z,101579.16
2023-04-17T11:49:08.311Z,101583.50
2023-04-17T11:51:35.412Z,101581.06
2023-04-17T11:54:01.918Z,101590.66
2023-04-17T11:56:29.556Z,101589.66
2023-04-17T11:58:57.738Z,101586.97
2023-04-17T12:01:28.513Z,101588.78
2023-04-17T12:03:56.901Z,101581.81
2023-04-17T12:06:24.389Z,101581.56
2023-04-17T12:08:53.622Z,101574.47
2023-04-17T12:11:26.202Z,101579.69
2023-04-17T12:13:53.437Z,101574.78
2023-04-17T12:16:20.152Z,101578.44
2023-04-17T12:18:46.792Z,101571.41
2023-04-17T12:21:13.958Z,101583.72
2023-04-17T12:23:41.424Z,101572.06
2023-04-17T12:26:08.569Z,101574.81
2023-04-17T12:28:36.277Z,101571.59
2023-04-17T12:31:04.483Z,101581.53
2023-04-17T12:33:31.771Z,101570.59
2023-04-17T12:36:00.282Z,101579.94
2023-04-17T12:38:26.960Z,101574.91
2023-04-17T12:40:53.580Z,101568.38
2023-04-17T12:43:20.193Z,101568.13
2023-04-17T12:45:46.906Z,101567.00
2023-04-17T12:48:14.683Z,101565.03
2023-04-17T12:50:44.439Z,101566.88
2023-04-17T12:53:13.266Z,101561.53
2023-04-17T12:55:44.155Z,101555.41
2023-04-17T12:58:15.037Z,101561.38
2023-04-17T13:00:44.747Z,101555.78
2023-04-17T13:03:11.851Z,101564.78
2023-04-17T13:05:39.373Z,101567.41
2023-04-17T13:08:05.942Z,101566.13
2023-04-17T13:10:34.256Z,101563.53
2023-04-17T13:13:02.161Z,101560.06
2023-04-17T13:15:28.632Z,101553.44
2023-04-17T13:17:55.888Z,101554.69
2023-04-17T13:20:22.410Z,101560.38
2023-04-17T13:22:48.900Z,101552.19
2023-04-17T13:25:15.403Z,101568.97
2023-04-17T13:27:41.788Z,101559.38
2023-04-17T13:30:08.700Z,101550.97
2023-04-17T13:32:35.282Z,101558.16
2023-04-17T13:35:02.898Z,101558.31
2023-04-17T13:37:29.388Z,101549.53
2023-04-17T13:39:55.881Z,101557.75
2023-04-17T13:42:22.365Z,101558.66
2023-04-17T13:44:49.414Z,101547.63
2023-04-17T13:47:15.825Z,101542.63
2023-04-17T13:49:42.249Z,101546.59
2023-04-17T13:52:08.805Z,101546.22
2023-04-17T13:54:35.246Z,101549.03
2023-04-17T13:57:02.201Z,101549.50
2023-04-17T13:59:28.603Z,101542.19
2023-04-17T14:01:55.176Z,101546.06
2023-04-17T14:04:22.184Z,101548.59
2023-04-17T14:06:50.835Z,101539.22
2023-04-17T14:09:17.916Z,101542.78
2023-04-17T14:11:44.459Z,101536.63
2023-04-17T14:14:12.713Z,101535.59
2023-04-17T14:16:40.901Z,101544.53
2023-04-17T14:19:13.936Z,101531.16
2023-04-17T14:21:41.859Z,101533.50
2023-04-17T14:24:08.796Z,101522.06
2023-04-17T14:26:35.851Z,101526.00
2023-04-17T14:29:02.436Z,101528.50
2023-04-17T14:31:28.933Z,101531.75
2023-04-17T14:33:55.727Z,101539.97
2023-04-17T14:36:22.126Z,101537.78
2023-04-17T14:38:51.327Z,101526.94
2023-04-17T14:41:18.296Z,101530.59
2023-04-17T14:43:44.842Z,101522.38
2023-04-17T14:46:11.538Z,101528.41
2023-04-17T14:48:51.830Z,101523.56
2023-04-17T14:51:22.431Z,101524.53
2023-04-17T14:53:48.916Z,101523.75
2023-04-17T14:56:15.890Z,101529.00
2023-04-17T14:58:43.209Z,101527.72
2023-04-17T15:01:09.743Z,101534.19
2023-04-17T15:03:36.420Z,101533.94
2023-04-17T15:06:03.449Z,101531.00
2023-04-17T15:08:31.123Z,101535.38
2023-04-17T15:10:58.073Z,101528.16
2023-04-17T15:13:24.553Z,101538.00
2023-04-17T15:15:51.056Z,101540.19
2023-04-17T15:18:17.546Z,101534.66
2023-04-17T15:20:44.001Z,101539.91
2023-04-17T15:23:10.430Z,101542.88
2023-04-17T15:25:36.933Z,101545.56
2023-04-17T15:28:03.436Z,101545.19
2023-04-17T15:30:29.858Z,101543.41
2023-04-17T15:32:56.392Z,101555.03
2023-04-17T15:35:22.851Z,101553.63
2023-04-17T15:37:49.329Z,101547.75
2023-04-17T15:40:16.473Z,101547.72
2023-04-17T15:42:42.922Z,101545.72
2023-04-17T15:45:10.021Z,101546.59
2023-04-17T15:47:36.496Z,101541.91
2023-04-17T15:50:02.966Z,101547.75
2023-04-17T15:52:29.330Z,101545.44
2023-04-17T15:54:56.936Z,101547.75
2023-04-17T15:57:23.533Z,101547.75
2023-04-17T15:59:50.198Z,101545.81
2023-04-17T16:02:16.890Z,101547.94
2023-04-17T16:04:43.806Z,101552.84
2023-04-17T16:07:11.936Z,101549.34
2023-04-17T16:09:39.818Z,101549.03
2023-04-17T16:12:19.547Z,101548.94
2023-04-17T16:14:46.787Z,101550.09
2023-04-17T16:17:13.158Z,101559.81
2023-04-17T16:19:39.568Z,101563.50
2023-04-17T16:22:06.072Z,101553.75
2023-04-17T16:24:32.614Z,101554.81
2023-04-17T16:27:03.353Z,101555.81
2023-04-17T16:29:29.840Z,101557.41
2023-04-17T16:31:56.416Z,101560.59
2023-04-17T16:34:22.897Z,101555.69
2023-04-17T16:36:49.689Z,101562.75
2023-04-17T16:39:16.147Z,101563.03
2023-04-17T16:41:43.237Z,101566.69
2023-04-17T16:44:09.838Z,101569.81
2023-04-17T16:46:52.088Z,101570.63
2023-04-17T16:49:22.737Z,101570.38
2023-04-17T16:51:49.175Z,101571.22
2023-04-17T16:54:16.051Z,101571.75
2023-04-17T16:56:42.783Z,101582.16
2023-04-17T16:59:09.223Z,101574.03
2023-04-17T17:01:35.691Z,101581.44
2023-04-17T17:04:02.204Z,101586.38
2023-04-17T17:06:29.144Z,101581.75
2023-04-17T17:08:55.642Z,101586.38
2023-04-17T17:11:23.272Z,101589.69
2023-04-17T17:13:50.576Z,101600.56
2023-04-17T17:16:18.645Z,101595.13
2023-04-17T17:18:45.616Z,101595.69
2023-04-17T17:21:12.131Z,101594.59
2023-04-17T17:23:38.926Z,101595.44
2023-04-17T17:26:05.675Z,101601.16
2023-04-17T17:28:32.588Z,101598.97
2023-04-17T17:31:05.326Z,101602.53
2023-04-17T17:33:32.212Z,101606.06
2023-04-17T17:35:59.197Z,101615.84
2023-04-17T17:38:28.563Z,101609.06
2023-04-17T17:40:58.458Z,101613.97
2023-04-17T17:43:24.959Z,101612.59
2023-04-17T17:45:52.361Z,101616.97
2023-04-17T17:48:20.364Z,101627.00
2023-04-17T17:50:47.455Z,101627.56
2023-04-17T17:53:14.050Z,101621.00
2023-04-17T17:55:40.601Z,101629.16
2023-04-17T17:58:08.491Z,101627.72
2023-04-17T18:00:35.409Z,101625.00
2023-04-17T18:03:02.133Z,101639.91
2023-04-17T18:05:28.748Z,101636.63
2023-04-17T18:07:55.291Z,101638.00
2023-04-17T18:10:21.692Z,101640.44
2023-04-17T18:12:49.105Z,101649.38
2023-04-17T18:15:15.574Z,101648.25
2023-04-17T18:17:41.978Z,101644.44
2023-04-17T18:20:08.914Z,101648.75
2023-04-17T18:22:36.604Z,101642.75
2023-04-17T18:25:03.036Z,101645.72
2023-04-17T18:27:30.814Z,101650.28
2023-04-17T18:29:58.436Z,101651.38
2023-04-17T18:32:24.998Z,101659.25
2023-04-17T18:34:51.454Z,101668.16
2023-04-17T18:37:18.343Z,101671.38
2023-04-17T18:39:44.841Z,101664.88
2023-04-17T18:42:11.469Z,101665.72
2023-04-17T18:44:37.942Z,101670.34
2023-04-17T18:47:04.649Z,101672.53
2023-04-17T18:49:31.138Z,101666.31
2023-04-17T18:51:57.552Z,101677.06
2023-04-17T18:54:24.249Z,101678.16
2023-04-17T18:56:50.869Z,101680.09
2023-04-17T18:59:19.740Z,101677.63
2023-04-17T19:01:46.417Z,101684.44
2023-04-17T19:04:13.123Z,101685.00
2023-04-17T19:06:39.786Z,101684.97
2023-04-17T19:09:06.299Z,101691.22
2023-04-17T19:11:33.446Z,101685.97
2023-04-17T19:13:59.908Z,101695.53
2023-04-17T19:16:26.415Z,101687.66
2023-04-17T19:18:52.877Z,101690.91
2023-04-17T19:21:19.330Z,101696.63
2023-04-17T19:23:47.427Z,101693.31
2023-04-17T19:26:15.732Z,101698.72
2023-04-17T19:28:42.239Z,101691.19
2023-04-17T19:31:09.131Z,101691.19
2023-04-17T19:33:35.707Z,101694.53
2023-04-17T19:36:04.925Z,101696.34
2023-04-17T19:38:31.495Z,101703.97
2023-04-17T19:41:15.126Z,101707.78
2023-04-17T19:43:42.448Z,101711.41
2023-04-17T19:46:09.321Z,101706.16
2023-04-17T19:48:36.534Z,101707.72
2023-04-17T19:51:07.722Z,101702.06
2023-04-17T19:53:35.863Z,101707.25
2023-04-17T19:56:03.396Z,101705.28
2023-04-17T19:58:30.248Z,101707.72
2023-04-17T20:00:58.107Z,101711.78
2023-04-17T20:03:26.336Z,101721.59
2023-04-17T20:05:53.325Z,101713.38
2023-04-17T20:08:19.939Z,101710.38
2023-04-17T20:10:46.389Z,101716.84
2023-04-17T20:13:13.148Z,101710.28
2023-04-17T20:15:40.575Z,101698.75
2023-04-17T20:18:08.915Z,101698.25
2023-04-17T20:20:36.804Z,101706.16
2023-04-17T20:23:03.789Z,101705.56
2023-04-17T20:25:30.598Z,101709.63
2023-04-17T20:27:57.211Z,101714.25
2023-04-17T20:30:24.269Z,101717.44
2023-04-17T20:32:51.057Z,101711.25
2023-04-17T20:35:20.716Z,101709.81
2023-04-17T20:37:47.165Z,101711.41
2023-04-17T20:40:14.138Z,101711.66
2023-04-17T20:42:42.112Z,101713.47
2023-04-17T20:45:09.355Z,101715.41
2023-04-17T20:47:37.389Z,101712.13
2023-04-17T20:50:07.692Z,101710.28
2023-04-17T20:52:34.702Z,101706.81
2023-04-17T20:55:01.454Z,101706.69
2023-04-17T20:57:28.657Z,101708.13
2023-04-17T20:59:58.110Z,101711.66
2023-04-17T21:02:24.767Z,101710.28
2023-04-17T21:04:51.363Z,101708.97
2023-04-17T21:07:17.947Z,101719.75
2023-04-17T21:09:44.378Z,101706.91
2023-04-17T21:12:10.838Z,101703.88
2023-04-17T21:14:37.270Z,101710.03
2023-04-17T21:17:03.755Z,101711.63
2023-04-17T21:19:30.806Z,101705.38
2023-04-17T21:21:58.189Z,101714.44
2023-04-17T21:24:25.034Z,101712.31
2023-04-17T21:26:51.559Z,101711.00
2023-04-17T21:29:17.946Z,101707.91
2023-04-17T21:31:44.444Z,101719.25
2023-04-17T21:34:11.096Z,101713.88
2023-04-17T21:36:37.654Z,101714.22
2023-04-17T21:39:04.286Z,101712.66
2023-04-17T21:41:31.765Z,101708.16
2023-04-17T21:44:02.590Z,101710.28
2023-04-17T21:46:29.312Z,101705.94
2023-04-17T21:48:58.485Z,101703.28
2023-04-17T21:51:24.874Z,101715.16
2023-04-17T21:53:51.374Z,101715.41
2023-04-17T21:56:17.827Z,101715.34
2023-04-17T21:58:44.272Z,101722.41
2023-04-17T22:01:10.761Z,101715.28
2023-04-17T22:03:37.182Z,101720.53
2023-04-17T22:06:03.900Z,101718.06
2023-04-17T22:08:30.494Z,101711.31
2023-04-17T22:10:56.932Z,101718.88
2023-04-17T22:13:23.425Z,101729.00
2023-04-17T22:15:51.125Z,101723.84
2023-04-17T22:18:17.549Z,101722.72
2023-04-17T22:20:44.164Z,101718.69
2023-04-17T22:23:10.622Z,101719.59
2023-04-17T22:25:37.023Z,101720.88
2023-04-17T22:28:03.461Z,101723.13
2023-04-17T22:30:29.894Z,101724.41
2023-04-17T22:32:57.166Z,101727.94
2023-04-17T22:35:23.721Z,101717.75
2023-04-17T22:37:50.084Z,101721.19
2023-04-17T22:40:16.570Z,101717.66
2023-04-17T22:42:43.161Z,101713.50
2023-04-17T22:45:09.672Z,101714.28
2023-04-17T22:47:36.123Z,101720.94
2023-04-17T22:50:03.337Z,101716.56
2023-04-17T22:52:29.864Z,101713.47
2023-04-17T22:54:59.041Z,101711.88
2023-04-17T22:57:25.427Z,101715.41
2023-04-17T22:59:51.892Z,101716.28
2023-04-17T23:02:18.359Z,101722.41
2023-04-17T23:04:44.896Z,101714.78
2023-04-17T23:07:29.410Z,101717.56
2023-04-17T23:09:55.793Z,101720.00
2023-04-17T23:12:22.188Z,101722.09
2023-04-17T23:14:48.620Z,101719.19
2023-04-17T23:17:15.148Z,101711.50
2023-04-17T23:19:41.577Z,101716.44
2023-04-17T23:22:09.149Z,101716.03
2023-04-17T23:24:35.837Z,101713.50
2023-04-17T23:27:02.413Z,101722.28
2023-04-17T23:29:28.928Z,101718.41
2023-04-17T23:31:57.402Z,101720.81
2023-04-17T23:34:23.870Z,101722.19
2023-04-17T23:36:50.588Z,101715.41
2023-04-17T23:39:16.971Z,101712.56
2023-04-17T23:41:43.410Z,101709.22
2023-04-17T23:44:09.902Z,101702.56
2023-04-17T23:46:36.754Z,101700.94
2023-04-17T23:49:03.754Z,101693.53
2023-04-17T23:51:31.438Z,101692.78
2023-04-17T23:53:59.423Z,101692.63
2023-04-17T23:56:26.001Z,101684.84
2023-04-17T23:58:52.566Z,101690.66
